createdAt,value
2022-10-09T03:07:54.193Z,19
2022-10-09T03:22:54.229Z,14
2022-10-09T03:32:54.195Z,12
2022-10-09T03:37:54.198Z,10
2022-10-09T03:47:54.205Z,10
2022-10-09T03:52:54.208Z,9
2022-10-09T03:57:54.209Z,7
2022-10-09T04:07:54.219Z,9
2022-10-09T04:17:54.223Z,8
2022-10-09T04:22:54.209Z,8
2022-10-09T04:27:54.224Z,8
2022-10-09T04:32:54.205Z,7
2022-10-09T04:37:54.221Z,6
2022-10-09T04:42:54.224Z,6
2022-10-09T04:47:54.228Z,8
2022-10-09T04:52:54.204Z,6
2022-10-09T04:57:54.209Z,6
2022-10-09T05:02:54.208Z,6
2022-10-09T05:07:54.239Z,5
2022-10-09T05:12:54.236Z,7
2022-10-09T05:17:54.218Z,8
2022-10-09T05:22:54.238Z,8
2022-10-09T05:27:54.228Z,7
2022-10-09T05:32:54.248Z,8
2022-10-09T05:37:54.284Z,4
2022-10-09T05:42:54.251Z,5
2022-10-09T05:47:54.237Z,5
2022-10-09T05:52:54.221Z,8
2022-10-09T05:57:54.256Z,7
2022-10-09T06:02:54.349Z,4
2022-10-09T06:07:54.269Z,10
2022-10-09T06:12:54.271Z,8
2022-10-09T06:17:54.274Z,4
2022-10-09T06:22:54.256Z,10
2022-10-09T06:27:54.276Z,7
2022-10-09T06:32:54.212Z,6
2022-10-09T06:37:54.261Z,5
2022-10-09T06:42:54.286Z,8
2022-10-09T06:47:54.259Z,9
2022-10-09T06:52:54.278Z,8
2022-10-09T06:57:54.286Z,10
2022-10-09T07:02:54.523Z,5
2022-10-09T07:07:54.300Z,8
2022-10-09T07:12:54.296Z,8
2022-10-09T07:17:54.271Z,9
2022-10-09T07:22:54.302Z,6
2022-10-09T07:27:54.270Z,6
2022-10-09T07:32:54.277Z,4
2022-10-09T07:37:54.279Z,6
2022-10-09T07:42:54.295Z,3
2022-10-09T07:47:54.309Z,4
2022-10-09T07:52:54.240Z,4
2022-10-09T07:57:54.318Z,5
2022-10-09T08:02:54.374Z,3
2022-10-09T08:07:54.287Z,4
2022-10-09T08:12:54.328Z,5
2022-10-09T08:17:54.302Z,7
2022-10-09T08:22:54.304Z,6
2022-10-09T08:27:54.308Z,4
2022-10-09T08:32:54.332Z,3
2022-10-09T08:37:54.333Z,5
2022-10-09T08:42:54.307Z,3
2022-10-09T08:47:54.308Z,5
2022-10-09T08:52:54.543Z,3
2022-10-09T08:57:54.318Z,5
2022-10-09T09:02:54.369Z,5
2022-10-09T09:07:54.325Z,3
2022-10-09T09:12:54.345Z,1
2022-10-09T09:17:54.383Z,3
2022-10-09T09:22:54.335Z,5
2022-10-09T09:27:54.339Z,4
2022-10-09T09:32:54.394Z,2
2022-10-09T09:37:54.342Z,5
2022-10-09T09:42:54.346Z,2
2022-10-09T09:47:54.357Z,2
2022-10-09T09:52:54.374Z,1
2022-10-09T09:57:54.369Z,1
2022-10-09T10:02:54.346Z,1
2022-10-09T10:07:54.350Z,2
2022-10-09T10:12:54.369Z,3
2022-10-09T10:17:54.382Z,4
2022-10-09T10:22:54.353Z,2
2022-10-09T10:27:54.314Z,3
2022-10-09T10:32:54.353Z,3
2022-10-09T10:37:54.370Z,4
2022-10-09T10:42:56.210Z,2
2022-10-09T10:47:54.391Z,1
2022-10-09T10:52:54.948Z,3
2022-10-09T10:57:54.397Z,3
2022-10-09T11:02:54.856Z,3
2022-10-09T11:07:56.655Z,2
2022-10-09T11:12:54.386Z,2
2022-10-09T11:17:54.391Z,1
2022-10-09T11:22:54.384Z,2
2022-10-09T11:27:54.388Z,0
2022-10-09T11:32:54.429Z,2
2022-10-09T11:37:54.393Z,1
2022-10-09T11:42:54.394Z,2
2022-10-09T11:47:54.433Z,1
2022-10-09T11:52:54.402Z,1
2022-10-09T11:57:54.401Z,1
2022-10-09T12:02:54.430Z,1
2022-10-09T12:07:54.442Z,1
2022-10-09T12:12:54.434Z,2
2022-10-09T12:17:54.448Z,1
2022-10-09T12:23:14.190Z,1
2022-10-09T12:27:54.411Z,4
2022-10-09T12:32:54.451Z,3
2022-10-09T12:37:54.424Z,4
2022-10-09T12:42:54.448Z,3
2022-10-09T12:47:54.431Z,3
2022-10-09T12:52:54.428Z,3
2022-10-09T12:57:54.473Z,2
2022-10-09T13:02:55.115Z,2
2022-10-09T13:07:54.486Z,2
2022-10-09T13:12:54.484Z,3
2022-10-09T13:22:54.459Z,2
2022-10-09T13:27:54.460Z,3
2022-10-09T13:32:54.472Z,5
2022-10-09T13:37:54.466Z,1
2022-10-09T13:42:54.470Z,2
2022-10-09T13:47:54.470Z,2
2022-10-09T13:52:54.481Z,3
2022-10-09T13:57:54.473Z,0
2022-10-09T14:02:54.491Z,2
2022-10-09T14:32:54.486Z,3
2022-10-09T14:42:54.498Z,3
2022-10-09T14:47:54.498Z,3
2022-10-09T14:57:54.528Z,3
2022-10-09T15:02:55.201Z,2
2022-10-09T15:07:54.540Z,3
2022-10-09T15:12:54.508Z,3
2022-10-09T15:17:54.549Z,3
2022-10-09T15:22:54.526Z,4
2022-10-09T15:27:54.931Z,3
2022-10-09T15:32:54.525Z,4
2022-10-09T15:37:55.702Z,4
2022-10-09T15:42:54.518Z,5
2022-10-09T15:47:54.560Z,2
2022-10-09T15:52:54.563Z,4
2022-10-09T15:57:54.534Z,12
2022-10-09T16:02:54.536Z,9
2022-10-09T16:07:54.559Z,7
2022-10-09T16:12:54.543Z,8
2022-10-09T16:17:54.540Z,21
2022-10-09T16:22:54.535Z,25
2022-10-09T16:27:54.556Z,24
2022-10-09T16:37:54.554Z,8
2022-10-09T16:42:54.552Z,9
2022-10-09T16:47:54.552Z,7
2022-10-09T16:52:54.551Z,6
2022-10-09T17:17:54.589Z,5
2022-10-09T17:57:54.584Z,5
2022-10-09T18:02:54.612Z,6
